Time;durP1;ratioP1;P1;durP2;ratioP2;P2;SDS_P1;SDS_P2;PMS_P1;PMS_P2;Temp;Humidity;BMP_temperature;BMP_pressure;BME280_temperature;BME280_humidity;BME280_pressure;Samples;Min_cycle;Max_cycle;Signal;HPM_P1;HPM_P2
2021/03/09 00:02:47;;;;;;;;;50.67;35.67;;;;;;;;12193302;29;8848;-47
2021/03/09 00:08:48;;;;;;;;;39.00;36.67;;;;;;;;12191949;29;8859;-50
2021/03/09 00:14:50;;;;;;;;;43.33;35.00;;;;;;;;12192089;29;8845;-50
2021/03/09 00:21:05;;;;;;;;;40.00;31.67;;;;;;;;12191026;29;9009;-49
2021/03/09 00:27:09;;;;;;;;;34.00;30.00;;;;;;;;12173843;29;8956;-51
2021/03/09 00:33:10;;;;;;;;;26.00;25.00;;;;;;;;12192249;29;8855;-47
2021/03/09 00:39:12;;;;;;;;;29.33;28.33;;;;;;;;12191250;29;8851;-51
2021/03/09 00:45:14;;;;;;;;;31.67;28.00;;;;;;;;12191795;29;8855;-53
2021/03/09 00:51:28;;;;;;;;;17.67;17.67;;;;;;;;12191354;29;8844;-49
2021/03/09 00:57:30;;;;;;;;;23.33;21.67;;;;;;;;12190944;29;9433;-47
2021/03/09 01:03:31;;;;;;;;;29.33;21.00;;;;;;;;12192271;29;8867;-49
2021/03/09 01:09:33;;;;;;;;;16.50;12.50;;;;;;;;12193473;29;8938;-46
2021/03/09 01:15:34;;;;;;;;;13.00;12.00;;;;;;;;12199646;29;8851;-49
2021/03/09 01:21:50;;;;;;;;;6.67;6.67;;;;;;;;12198691;29;8881;-48
2021/03/09 01:27:52;;;;;;;;;12.67;10.00;;;;;;;;12197515;29;8941;-51
2021/03/09 01:33:53;;;;;;;;;14.33;12.67;;;;;;;;12199810;29;8898;-46
2021/03/09 01:39:55;;;;;;;;;13.00;12.33;;;;;;;;12198237;29;8891;-47
2021/03/09 01:45:56;;;;;;;;;9.00;9.00;;;;;;;;12200020;29;8870;-47
2021/03/09 01:52:13;;;;;;;;;10.00;7.00;;;;;;;;12198200;29;8879;-46
2021/03/09 01:58:18;;;;;;;;;12.67;12.00;;;;;;;;12197163;29;8871;-50
2021/03/09 02:04:19;;;;;;;;;6.67;5.33;;;;;;;;12197350;29;8950;-46
2021/03/09 02:10:21;;;;;;;;;12.00;9.33;;;;;;;;12196804;29;8887;-46
2021/03/09 02:16:30;;;;;;;;;13.00;12.00;;;;;;;;12197809;29;8835;-46
2021/03/09 02:22:57;;;;;;;;;12.00;10.00;;;;;;;;12180137;29;8891;-49
2021/03/09 02:29:33;;;;;;;;;15.33;13.00;;;;;;;;12197019;29;8843;-49
2021/03/09 02:35:39;;;;;;;;;11.33;10.67;;;;;;;;12196388;29;9653;-47
2021/03/09 02:41:46;;;;;;;;;12.67;12.00;;;;;;;;12196393;29;8885;-45
2021/03/09 02:47:50;;;;;;;;;9.67;7.67;;;;;;;;12179090;29;9620;-49
2021/03/09 02:53:55;;;;;;;;;8.33;7.00;;;;;;;;12195385;29;8843;-48
2021/03/09 02:59:57;;;;;;;;;6.00;6.00;;;;;;;;12195967;29;8860;-47
2021/03/09 03:06:01;;;;;;;;;9.00;4.00;;;;;;;;12193240;29;8855;-49
2021/03/09 03:12:03;;;;;;;;;6.00;6.00;;;;;;;;12194749;29;9424;-48
2021/03/09 03:18:11;;;;;;;;;3.67;2.33;;;;;;;;12192996;29;8863;-48
2021/03/09 03:24:15;;;;;;;;;4.67;4.00;;;;;;;;12192362;29;8949;-47
2021/03/09 03:30:17;;;;;;;;;5.33;4.00;;;;;;;;12194441;29;8862;-46
2021/03/09 03:36:19;;;;;;;;;5.33;4.00;;;;;;;;12193016;29;8855;-49
2021/03/09 03:42:22;;;;;;;;;4.00;4.00;;;;;;;;12193598;29;8872;-46
2021/03/09 03:48:24;;;;;;;;;6.00;6.00;;;;;;;;12191945;29;8870;-49
2021/03/09 03:54:34;;;;;;;;;4.00;4.00;;;;;;;;12192595;29;8855;-47
2021/03/09 04:00:37;;;;;;;;;6.00;3.67;;;;;;;;12193067;29;8875;-48
2021/03/09 04:06:44;;;;;;;;;5.33;3.67;;;;;;;;12192280;29;8882;-49
2021/03/09 04:12:46;;;;;;;;;3.67;3.00;;;;;;;;12192733;29;8855;-49
2021/03/09 04:18:49;;;;;;;;;4.00;3.00;;;;;;;;12191964;29;8863;-47
2021/03/09 04:24:51;;;;;;;;;4.33;4.33;;;;;;;;12192447;29;8859;-47
2021/03/09 04:30:53;;;;;;;;;4.00;4.00;;;;;;;;12192624;29;8871;-48
2021/03/09 04:36:55;;;;;;;;;4.00;4.00;;;;;;;;12191827;29;8843;-47
2021/03/09 04:42:57;;;;;;;;;6.33;6.33;;;;;;;;12194045;29;8946;-47
2021/03/09 04:48:59;;;;;;;;;9.00;7.00;;;;;;;;12200005;29;8855;-47
2021/03/09 04:55:03;;;;;;;;;9.00;4.67;;;;;;;;12200433;29;8839;-46
2021/03/09 05:07:43;;;;;;;;;7.00;6.00;;;;;;;;12089367;24;9002;-55
2021/03/09 05:13:45;;;;;;;;;9.00;9.00;;;;;;;;12059845;29;8901;-55
2021/03/09 05:19:46;;;;;;;;;9.67;9.00;;;;;;;;12061049;29;8909;-55
2021/03/09 05:25:48;;;;;;;;;13.00;9.33;;;;;;;;12059834;29;8874;-56
2021/03/09 05:31:49;;;;;;;;;12.67;7.00;;;;;;;;12059164;29;8945;-57
2021/03/09 05:37:51;;;;;;;;;7.00;7.00;;;;;;;;12060484;29;8890;-56
2021/03/09 05:43:53;;;;;;;;;6.33;6.33;;;;;;;;12041721;29;8894;-55
2021/03/09 05:49:54;;;;;;;;;7.50;7.50;;;;;;;;12060346;29;9698;-56
2021/03/09 05:55:56;;;;;;;;;12.33;12.00;;;;;;;;12057960;29;8866;-56
2021/03/09 06:01:57;;;;;;;;;14.33;10.00;;;;;;;;12051102;29;8894;-57
2021/03/09 06:07:59;;;;;;;;;8.00;7.00;;;;;;;;12044165;29;8913;-57
2021/03/09 06:14:02;;;;;;;;;18.00;16.00;;;;;;;;12056302;29;8882;-55
2021/03/09 06:20:07;;;;;;;;;14.75;12.00;;;;;;;;12051439;29;8883;-57
2021/03/09 06:26:36;;;;;;;;;12.75;12.25;;;;;;;;12040640;29;8866;-58
2021/03/09 06:32:43;;;;;;;;;12.25;10.50;;;;;;;;12047309;29;8870;-56
2021/03/09 06:38:54;;;;;;;;;12.75;11.00;;;;;;;;12057861;29;8882;-59
2021/03/09 06:45:10;;;;;;;;;15.75;15.25;;;;;;;;12042389;29;8996;-57
2021/03/09 06:51:32;;;;;;;;;12.00;12.00;;;;;;;;12011075;29;8885;-57
2021/03/09 06:57:33;;;;;;;;;13.00;12.75;;;;;;;;12009058;29;8880;-58
2021/03/09 07:03:38;;;;;;;;;14.50;13.00;;;;;;;;12009386;29;8985;-57
2021/03/09 07:09:54;;;;;;;;;11.50;11.50;;;;;;;;12003684;29;8996;-58
2021/03/09 07:15:56;;;;;;;;;12.00;10.00;;;;;;;;12025673;29;8870;-57
2021/03/09 07:21:58;;;;;;;;;12.75;12.75;;;;;;;;12055199;29;8917;-59
2021/03/09 07:28:07;;;;;;;;;13.50;11.50;;;;;;;;12050831;29;8886;-59
2021/03/09 07:34:09;;;;;;;;;13.00;12.00;;;;;;;;12040745;29;8866;-58
2021/03/09 07:40:14;;;;;;;;;14.25;10.75;;;;;;;;12048615;29;8898;-54
2021/03/09 07:46:16;;;;;;;;;15.00;11.00;;;;;;;;12048370;29;8973;-59
2021/03/09 07:52:22;;;;;;;;;16.25;15.50;;;;;;;;12049638;29;8855;-54
2021/03/09 07:58:28;;;;;;;;;14.50;12.50;;;;;;;;12037560;29;9006;-56
2021/03/09 08:04:29;;;;;;;;;12.75;12.50;;;;;;;;12040114;29;8882;-55
2021/03/09 08:10:33;;;;;;;;;17.75;17.75;;;;;;;;12043025;29;8854;-57
2021/03/09 08:16:42;;;;;;;;;25.25;23.50;;;;;;;;12043096;29;8961;-57
2021/03/09 08:22:45;;;;;;;;;10.75;10.75;;;;;;;;12049029;29;8890;-56
2021/03/09 08:28:46;;;;;;;;;15.00;15.00;;;;;;;;12048235;29;8913;-59
2021/03/09 08:34:48;;;;;;;;;17.50;14.50;;;;;;;;12049092;29;9500;-59
2021/03/09 08:41:00;;;;;;;;;14.25;14.25;;;;;;;;12047779;29;8905;-60
2021/03/09 08:47:07;;;;;;;;;13.00;11.75;;;;;;;;12023689;29;9646;-58
2021/03/09 08:53:31;;;;;;;;;11.25;11.25;;;;;;;;12014074;29;8882;-56
2021/03/09 08:59:36;;;;;;;;;10.50;10.50;;;;;;;;12045709;29;8878;-56
2021/03/09 09:05:39;;;;;;;;;13.25;13.25;;;;;;;;12047721;29;8878;-60
2021/03/09 09:11:40;;;;;;;;;14.25;11.00;;;;;;;;12029307;29;8910;-57
2021/03/09 09:17:48;;;;;;;;;14.00;12.00;;;;;;;;12048863;29;8909;-58
2021/03/09 09:23:50;;;;;;;;;17.00;15.00;;;;;;;;12047339;29;8909;-58
2021/03/09 09:29:56;;;;;;;;;11.25;11.25;;;;;;;;12049208;29;8950;-57
2021/03/09 09:35:58;;;;;;;;;9.00;7.75;;;;;;;;12024311;29;9616;-57
2021/03/09 09:41:59;;;;;;;;;11.75;10.50;;;;;;;;12052620;29;8863;-57
2021/03/09 09:48:01;;;;;;;;;21.25;19.00;;;;;;;;12050970;29;8867;-57
2021/03/09 09:54:10;;;;;;;;;15.75;15.75;;;;;;;;12049644;29;8910;-59
2021/03/09 10:00:12;;;;;;;;;21.75;16.00;;;;;;;;12027212;29;8879;-56
2021/03/09 10:06:15;;;;;;;;;21.50;18.00;;;;;;;;12046746;29;8998;-57
2021/03/09 10:12:31;;;;;;;;;13.25;12.25;;;;;;;;12048215;29;9289;-60
2021/03/09 10:18:35;;;;;;;;;16.50;15.00;;;;;;;;12049246;29;8866;-58
2021/03/09 10:24:37;;;;;;;;;17.00;15.50;;;;;;;;12049155;29;8925;-57
2021/03/09 10:30:40;;;;;;;;;18.00;16.00;;;;;;;;12050100;29;8902;-56
2021/03/09 10:36:49;;;;;;;;;19.50;16.00;;;;;;;;12050233;29;8870;-57
2021/03/09 10:42:50;;;;;;;;;19.00;17.75;;;;;;;;12046281;29;9001;-56
2021/03/09 10:48:52;;;;;;;;;21.00;20.00;;;;;;;;12033571;29;8861;-59
2021/03/09 10:54:53;;;;;;;;;16.25;16.25;;;;;;;;12003417;29;8889;-57
2021/03/09 11:00:59;;;;;;;;;19.75;17.50;;;;;;;;12045977;29;8886;-55
2021/03/09 11:07:00;;;;;;;;;26.25;24.50;;;;;;;;12048079;29;10122;-59
2021/03/09 11:13:01;;;;;;;;;27.50;23.75;;;;;;;;12049331;29;8929;-59
2021/03/09 11:19:03;;;;;;;;;25.00;21.75;;;;;;;;12045550;29;8865;-60
2021/03/09 11:25:05;;;;;;;;;19.75;17.25;;;;;;;;12024831;29;8870;-59
2021/03/09 11:31:06;;;;;;;;;18.00;18.00;;;;;;;;12047219;29;9621;-60
2021/03/09 11:37:08;;;;;;;;;17.75;15.00;;;;;;;;12046891;29;8910;-60
2021/03/09 11:43:10;;;;;;;;;9.50;6.25;;;;;;;;12043088;29;8899;-60
2021/03/09 11:49:13;;;;;;;;;14.75;13.75;;;;;;;;12050072;29;9600;-60
2021/03/09 11:55:14;;;;;;;;;21.25;19.25;;;;;;;;12049553;29;8867;-59
2021/03/09 12:01:18;;;;;;;;;17.75;17.75;;;;;;;;12042133;29;8918;-59
2021/03/09 12:07:20;;;;;;;;;20.00;20.00;;;;;;;;12038153;29;8879;-58
2021/03/09 12:13:23;;;;;;;;;22.25;19.00;;;;;;;;12047809;29;8933;-60
2021/03/09 12:19:25;;;;;;;;;22.25;20.50;;;;;;;;12049767;29;8981;-59
2021/03/09 12:25:27;;;;;;;;;22.25;18.00;;;;;;;;12031379;29;8930;-60
2021/03/09 12:31:28;;;;;;;;;22.50;22.00;;;;;;;;12047226;29;8867;-62
2021/03/09 12:37:30;;;;;;;;;22.25;20.50;;;;;;;;12049209;29;8918;-56
2021/03/09 12:43:32;;;;;;;;;20.00;19.25;;;;;;;;12048224;29;9001;-61
2021/03/09 12:49:34;;;;;;;;;21.00;18.00;;;;;;;;12033105;29;9476;-59
2021/03/09 12:55:36;;;;;;;;;19.75;19.75;;;;;;;;12046898;29;8933;-60
2021/03/09 13:01:37;;;;;;;;;26.50;24.50;;;;;;;;12047706;29;8902;-59
2021/03/09 13:07:39;;;;;;;;;23.75;22.00;;;;;;;;12055047;29;9009;-58
2021/03/09 13:13:40;;;;;;;;;24.75;21.75;;;;;;;;12055936;29;9001;-58
2021/03/09 13:19:41;;;;;;;;;25.25;24.50;;;;;;;;12056847;29;8941;-59
2021/03/09 13:25:43;;;;;;;;;23.75;22.25;;;;;;;;12055474;29;8882;-60
2021/03/09 13:31:45;;;;;;;;;20.50;20.50;;;;;;;;12055067;29;8887;-58
2021/03/09 13:37:48;;;;;;;;;26.00;22.00;;;;;;;;12055141;29;8874;-59
2021/03/09 13:43:50;;;;;;;;;20.00;17.50;;;;;;;;12054671;29;9057;-59
2021/03/09 13:49:51;;;;;;;;;26.00;21.25;;;;;;;;12055137;29;8882;-58
2021/03/09 13:55:53;;;;;;;;;21.75;18.00;;;;;;;;12055360;29;8950;-57
2021/03/09 14:01:55;;;;;;;;;25.00;22.25;;;;;;;;12052805;29;8913;-56
2021/03/09 14:07:57;;;;;;;;;25.00;21.25;;;;;;;;12054743;29;9017;-59
2021/03/09 14:14:00;;;;;;;;;26.50;22.25;;;;;;;;12047523;29;8882;-56
2021/03/09 14:20:02;;;;;;;;;26.75;26.00;;;;;;;;12053526;29;8863;-55
2021/03/09 14:26:04;;;;;;;;;24.00;20.25;;;;;;;;12054398;29;9601;-63
2021/03/09 14:32:08;;;;;;;;;21.50;20.75;;;;;;;;12052968;29;9620;-59
2021/03/09 14:38:09;;;;;;;;;23.75;21.50;;;;;;;;12052353;29;8989;-57
2021/03/09 14:44:11;;;;;;;;;21.50;21.50;;;;;;;;12017056;29;8882;-58
2021/03/09 14:50:18;;;;;;;;;24.50;24.25;;;;;;;;12048432;29;8858;-57
2021/03/09 14:56:19;;;;;;;;;23.50;22.75;;;;;;;;12053772;29;9702;-56
2021/03/09 15:02:20;;;;;;;;;23.00;20.50;;;;;;;;12051180;29;8898;-57
2021/03/09 15:08:23;;;;;;;;;21.75;21.75;;;;;;;;12051328;29;8862;-57
2021/03/09 15:14:25;;;;;;;;;20.25;20.25;;;;;;;;12046193;29;8877;-57
2021/03/09 15:20:28;;;;;;;;;28.75;26.25;;;;;;;;12029960;29;9644;-57
2021/03/09 15:26:29;;;;;;;;;21.00;21.00;;;;;;;;12050201;29;8897;-58
2021/03/09 15:32:31;;;;;;;;;27.00;21.75;;;;;;;;12047667;29;8885;-57
2021/03/09 15:38:32;;;;;;;;;28.50;26.25;;;;;;;;12029893;29;8885;-57
2021/03/09 15:44:34;;;;;;;;;29.25;25.25;;;;;;;;12007485;29;8901;-59
2021/03/09 15:50:35;;;;;;;;;29.50;26.00;;;;;;;;12009220;29;8865;-61
2021/03/09 15:56:37;;;;;;;;;34.75;32.50;;;;;;;;12008669;29;8897;-59
2021/03/09 16:02:43;;;;;;;;;32.50;28.50;;;;;;;;12006273;29;8917;-59
2021/03/09 16:08:45;;;;;;;;;30.50;27.25;;;;;;;;12009550;29;8958;-60
2021/03/09 16:14:46;;;;;;;;;32.25;30.50;;;;;;;;12033837;29;8871;-60
2021/03/09 16:20:48;;;;;;;;;47.50;35.00;;;;;;;;12016397;29;8881;-59
2021/03/09 16:26:49;;;;;;;;;39.50;35.50;;;;;;;;12007851;29;9662;-59
2021/03/09 16:32:55;;;;;;;;;40.00;33.25;;;;;;;;12006442;29;8925;-58
2021/03/09 16:38:57;;;;;;;;;40.75;38.00;;;;;;;;12009237;29;8853;-56
2021/03/09 16:44:58;;;;;;;;;38.00;34.50;;;;;;;;12015627;29;8885;-57
2021/03/09 16:50:59;;;;;;;;;35.25;31.25;;;;;;;;12015602;29;8873;-56
2021/03/09 16:57:03;;;;;;;;;43.00;40.25;;;;;;;;12017156;29;8884;-56
2021/03/09 17:03:22;;;;;;;;;49.00;43.00;;;;;;;;12019240;29;9675;-58
2021/03/09 17:09:24;;;;;;;;;47.25;43.25;;;;;;;;12016728;29;8880;-58
2021/03/09 17:15:26;;;;;;;;;47.00;41.75;;;;;;;;12014390;29;8912;-57
2021/03/09 17:21:28;;;;;;;;;43.75;40.75;;;;;;;;12014632;29;8929;-57
2021/03/09 17:27:29;;;;;;;;;49.75;41.50;;;;;;;;12014931;29;8865;-55
2021/03/09 17:33:44;;;;;;;;;51.00;44.25;;;;;;;;12014651;29;9623;-60
2021/03/09 17:39:46;;;;;;;;;50.50;43.25;;;;;;;;12014723;29;8991;-56
2021/03/09 17:45:48;;;;;;;;;47.25;45.00;;;;;;;;12013099;29;8904;-56
2021/03/09 17:51:50;;;;;;;;;30.50;26.25;;;;;;;;12013532;29;8963;-56
2021/03/09 17:57:51;;;;;;;;;50.75;44.75;;;;;;;;12011808;29;8958;-57
2021/03/09 18:04:06;;;;;;;;;50.00;43.25;;;;;;;;12013198;29;8901;-57
2021/03/09 18:10:08;;;;;;;;;60.25;49.00;;;;;;;;12014567;29;8913;-58
2021/03/09 18:16:09;;;;;;;;;52.75;45.00;;;;;;;;12012669;29;8956;-58
2021/03/09 18:22:11;;;;;;;;;56.50;48.50;;;;;;;;12013863;29;9764;-56
2021/03/09 18:28:13;;;;;;;;;63.50;47.50;;;;;;;;12011492;29;8893;-55
2021/03/09 18:34:27;;;;;;;;;65.75;50.75;;;;;;;;11995080;29;8881;-57
2021/03/09 18:40:29;;;;;;;;;59.75;47.75;;;;;;;;12012500;29;8888;-58
2021/03/09 18:46:34;;;;;;;;;57.75;48.25;;;;;;;;12011116;29;8980;-56
2021/03/09 18:52:36;;;;;;;;;48.00;43.75;;;;;;;;12012451;29;9766;-57
2021/03/09 18:58:37;;;;;;;;;56.00;48.75;;;;;;;;11993285;29;8901;-57
2021/03/09 19:04:47;;;;;;;;;60.75;52.75;;;;;;;;12009007;29;8896;-57
2021/03/09 19:10:50;;;;;;;;;54.25;48.75;;;;;;;;12010654;29;8869;-57
2021/03/09 19:16:52;;;;;;;;;44.25;39.50;;;;;;;;12011573;29;8861;-59
2021/03/09 19:22:53;;;;;;;;;65.00;51.00;;;;;;;;12011636;29;8884;-60
2021/03/09 19:28:55;;;;;;;;;52.25;44.00;;;;;;;;12008735;29;8884;-58
2021/03/09 19:35:09;;;;;;;;;60.25;50.00;;;;;;;;12009350;29;8896;-56
2021/03/09 19:41:11;;;;;;;;;56.50;49.50;;;;;;;;12008880;29;8872;-56
2021/03/09 19:47:12;;;;;;;;;48.00;45.00;;;;;;;;12007808;29;8896;-58
2021/03/09 19:53:14;;;;;;;;;60.50;49.25;;;;;;;;12009825;29;8880;-55
2021/03/09 19:59:15;;;;;;;;;58.75;48.50;;;;;;;;12007193;29;8896;-57
2021/03/09 20:05:31;;;;;;;;;53.25;47.00;;;;;;;;12008426;29;9682;-56
2021/03/09 20:11:32;;;;;;;;;55.50;47.50;;;;;;;;12007226;29;8899;-60
2021/03/09 20:17:35;;;;;;;;;46.00;43.75;;;;;;;;12006846;29;9729;-58
2021/03/09 20:23:36;;;;;;;;;57.75;49.00;;;;;;;;12008737;29;8891;-58
2021/03/09 20:29:39;;;;;;;;;56.00;49.00;;;;;;;;11990768;29;8913;-56
2021/03/09 20:35:54;;;;;;;;;59.50;49.75;;;;;;;;12008288;29;8861;-59
2021/03/09 20:41:56;;;;;;;;;54.75;46.25;;;;;;;;12006279;29;8975;-57
2021/03/09 20:47:58;;;;;;;;;50.25;45.50;;;;;;;;12006808;29;8915;-57
2021/03/09 20:54:01;;;;;;;;;57.00;47.75;;;;;;;;12008711;29;8889;-56
2021/03/09 21:00:08;;;;;;;;;49.25;44.50;;;;;;;;11990875;29;8897;-58
2021/03/09 21:06:19;;;;;;;;;56.25;48.75;;;;;;;;12007582;29;9777;-57
2021/03/09 21:12:21;;;;;;;;;57.00;45.75;;;;;;;;12005102;29;8865;-58
2021/03/09 21:18:22;;;;;;;;;47.00;42.75;;;;;;;;12006905;29;8861;-57
2021/03/09 21:24:24;;;;;;;;;54.75;47.50;;;;;;;;12007672;29;8901;-54
2021/03/09 21:30:26;;;;;;;;;53.00;43.75;;;;;;;;12014189;29;8872;-56
2021/03/09 21:36:41;;;;;;;;;41.00;34.50;;;;;;;;12017007;29;8915;-57
2021/03/09 21:42:43;;;;;;;;;28.25;25.25;;;;;;;;11997781;29;8896;-57
2021/03/09 21:48:44;;;;;;;;;46.25;40.25;;;;;;;;12014107;29;9595;-57
2021/03/09 21:54:50;;;;;;;;;47.25;39.75;;;;;;;;12013435;29;8924;-55
2021/03/09 22:00:51;;;;;;;;;38.25;37.00;;;;;;;;12012934;29;8877;-56
2021/03/09 22:07:02;;;;;;;;;39.50;32.50;;;;;;;;11998834;29;8904;-57
2021/03/09 22:13:03;;;;;;;;;25.25;25.25;;;;;;;;12012387;29;8877;-58
2021/03/09 22:19:05;;;;;;;;;38.25;29.75;;;;;;;;12013424;29;9298;-58
2021/03/09 22:25:07;;;;;;;;;32.50;29.75;;;;;;;;12010519;29;8893;-58
2021/03/09 22:31:08;;;;;;;;;33.50;29.50;;;;;;;;12011376;29;8899;-58
2021/03/09 22:37:29;;;;;;;;;35.25;33.00;;;;;;;;12012979;29;8880;-57
2021/03/09 22:43:30;;;;;;;;;32.00;28.25;;;;;;;;12010761;29;8873;-56
2021/03/09 22:49:33;;;;;;;;;9.75;5.00;;;;;;;;12012393;29;8887;-56
2021/03/09 22:55:34;;;;;;;;;29.25;26.25;;;;;;;;12011036;29;8885;-56
2021/03/09 23:01:36;;;;;;;;;27.00;24.00;;;;;;;;12009715;29;8908;-57
2021/03/09 23:07:53;;;;;;;;;29.00;24.25;;;;;;;;12011234;29;8873;-55
2021/03/09 23:13:54;;;;;;;;;35.25;31.50;;;;;;;;12009697;29;8877;-56
2021/03/09 23:19:55;;;;;;;;;23.75;23.75;;;;;;;;12011200;29;8892;-55
2021/03/09 23:25:57;;;;;;;;;32.75;29.25;;;;;;;;12008671;29;8881;-54
2021/03/09 23:31:59;;;;;;;;;31.50;26.25;;;;;;;;12008665;29;8877;-56
2021/03/09 23:38:22;;;;;;;;;31.75;30.50;;;;;;;;12009247;29;8868;-54
2021/03/09 23:44:24;;;;;;;;;35.75;31.50;;;;;;;;12008149;29;8876;-55
2021/03/09 23:50:41;;;;;;;;;33.50;30.50;;;;;;;;12009296;29;8873;-54
2021/03/09 23:56:43;;;;;;;;;42.75;38.75;;;;;;;;12007303;29;8939;-54
